Bremer, Iowa
Current Conditions -  °F | °C
As of 12:38 PM on Monday 26 Jan 2015 (Local Time) from KALO Reporting Station
Broken Clouds Broken Clouds  
Wind Chill: 32°   Ceiling: 1700
Heat Index: 38°   Visibility: 10mi
Dew Point: 34°   Wind: 8mph
Humidity: 86%   Direction: 260°W
Pressure: 29.75"   Gusts: NA
Location:  42.787°N, 92.4284°W
Report Text: KALO 261838Z AUTO 26007KT 10SM BKN017 03/01 A2975 RMK AO2 T00330011
Loading
Personal Weather Stations






























Interactive Weather Map New forecast layout! Learn more

10-Day Weather Forecast

Advertisements
Track Severe Weather on mobile